Time;durP1;ratioP1;P1;durP2;ratioP2;P2;SDS_P1;SDS_P2;PMS_P1;PMS_P2;Temp;Humidity;BMP_temperature;BMP_pressure;BME280_temperature;BME280_humidity;BME280_pressure;Samples;Min_cycle;Max_cycle;Signal;HPM_P1;HPM_P2
2020/12/17 00:00:08;;;;;;;20.47;10.00;;;;;;;1.31;99.49;101463.28;5030812;28;20631;-76
2020/12/17 00:02:34;;;;;;;21.77;10.83;;;;;;;1.27;99.45;101461.47;5050059;28;20546;-75
2020/12/17 00:05:00;;;;;;;22.30;10.23;;;;;;;1.27;99.92;101458.91;5049039;28;20200;-75
2020/12/17 00:07:27;;;;;;;20.30;10.13;;;;;;;1.28;100.00;101455.47;5054473;28;20223;-75
2020/12/17 00:09:52;;;;;;;19.60;9.50;;;;;;;1.25;100.00;101447.72;5054349;28;20214;-74
2020/12/17 00:12:18;;;;;;;20.13;10.37;;;;;;;1.24;100.00;101450.25;5057732;28;20286;-76
2020/12/17 00:14:45;;;;;;;17.67;9.37;;;;;;;1.26;100.00;101446.00;5059082;28;20198;-75
2020/12/17 00:17:11;;;;;;;22.87;10.23;;;;;;;1.22;100.00;101450.22;5048653;28;20245;-75
2020/12/17 00:19:36;;;;;;;20.57;9.60;;;;;;;1.25;100.00;101445.16;5051776;28;20699;-76
2020/12/17 00:22:02;;;;;;;16.53;9.47;;;;;;;1.24;100.00;101448.53;5049729;28;20638;-75
2020/12/17 00:24:29;;;;;;;18.60;9.87;;;;;;;1.22;100.00;101454.50;5050202;28;20611;-76
2020/12/17 00:26:55;;;;;;;20.70;10.37;;;;;;;1.20;100.00;101457.00;5045683;28;20201;-75
2020/12/17 00:29:21;;;;;;;19.93;9.77;;;;;;;1.18;100.00;101456.09;5052948;28;20600;-75
2020/12/17 00:31:47;;;;;;;21.97;10.20;;;;;;;1.20;100.00;101464.72;5039199;28;20236;-75
2020/12/17 00:34:12;;;;;;;17.60;9.37;;;;;;;1.18;100.00;101468.06;5035178;28;20205;-75
2020/12/17 00:36:38;;;;;;;18.07;9.13;;;;;;;1.19;100.00;101459.53;5055173;28;20196;-75
2020/12/17 00:39:04;;;;;;;21.90;10.37;;;;;;;1.17;100.00;101451.78;5053216;28;20243;-75
2020/12/17 00:41:31;;;;;;;19.03;9.80;;;;;;;1.20;100.00;101462.16;5048557;28;20567;-75
2020/12/17 00:43:57;;;;;;;20.13;9.67;;;;;;;1.18;100.00;101456.09;5049116;28;20253;-76
2020/12/17 00:46:23;;;;;;;21.07;10.07;;;;;;;1.20;100.00;101464.72;5051564;28;20795;-76
2020/12/17 00:48:50;;;;;;;18.57;10.23;;;;;;;1.18;100.00;101458.69;5049575;28;20214;-75
2020/12/17 00:51:18;;;;;;;20.30;9.87;;;;;;;1.17;100.00;101462.06;5048652;28;20194;-76
2020/12/17 00:53:44;;;;;;;16.77;9.50;;;;;;;1.18;100.00;101460.34;5050830;28;20197;-75
2020/12/17 00:56:10;;;;;;;20.93;10.23;;;;;;;1.15;100.00;101455.16;5052260;28;20244;-75
2020/12/17 00:58:36;;;;;;;20.97;10.00;;;;;;;1.13;100.00;101455.13;5059153;28;20578;-75
2020/12/17 01:01:05;;;;;;;18.73;9.83;;;;;;;1.09;100.00;101450.72;5048303;28;20305;-75
2020/12/17 01:03:31;;;;;;;17.17;9.27;;;;;;;1.02;100.00;101457.41;5050517;28;20284;-75
2020/12/17 01:05:57;;;;;;;20.10;9.60;;;;;;;1.02;100.00;101456.53;5055984;28;20202;-75
2020/12/17 01:08:23;;;;;;;19.10;9.40;;;;;;;1.00;100.00;101458.19;5053361;28;20617;-75
2020/12/17 01:10:49;;;;;;;18.33;10.07;;;;;;;0.94;100.00;101456.31;5049029;28;20482;-75
2020/12/17 01:13:15;;;;;;;17.90;9.83;;;;;;;0.88;100.00;101456.16;5054950;28;20277;-76
2020/12/17 01:15:41;;;;;;;18.20;9.23;;;;;;;0.89;100.00;101447.63;5048699;28;20198;-76
2020/12/17 01:18:07;;;;;;;23.17;10.73;;;;;;;0.84;100.00;101456.91;5056224;28;20539;-76
2020/12/17 01:20:33;;;;;;;19.13;9.33;;;;;;;0.80;100.00;101457.66;5049208;28;20849;-75
2020/12/17 01:22:59;;;;;;;18.27;10.23;;;;;;;0.75;100.00;101455.81;5038269;28;20232;-76
2020/12/17 01:25:25;;;;;;;18.83;9.00;;;;;;;0.70;100.00;101457.41;5049794;28;20195;-75
2020/12/17 01:27:51;;;;;;;20.30;9.83;;;;;;;0.64;100.00;101449.53;5043460;28;20240;-75
2020/12/17 01:30:17;;;;;;;20.07;9.43;;;;;;;0.59;100.00;101452.81;5053791;28;20298;-75
2020/12/17 01:32:44;;;;;;;18.67;9.07;;;;;;;0.55;100.00;101445.00;5047585;28;20230;-75
2020/12/17 01:35:09;;;;;;;20.07;9.03;;;;;;;0.59;100.00;101452.81;5058295;28;20203;-72
2020/12/17 01:37:35;;;;;;;18.23;9.10;;;;;;;0.54;100.00;101463.78;5045189;28;20763;-73
2020/12/17 01:40:02;;;;;;;22.13;9.60;;;;;;;0.48;100.00;101452.50;5052514;28;20285;-75
2020/12/17 01:42:28;;;;;;;20.27;9.40;;;;;;;0.42;100.00;101450.63;5032940;28;20200;-75
2020/12/17 01:44:54;;;;;;;19.20;10.10;;;;;;;0.38;100.00;101443.66;5053800;28;20201;-75
2020/12/17 01:47:19;;;;;;;17.97;9.17;;;;;;;0.37;100.00;101447.06;5033786;28;20207;-74
2020/12/17 01:49:47;;;;;;;19.03;8.87;;;;;;;0.34;100.00;101449.53;5054199;28;20219;-74
2020/12/17 01:52:13;;;;;;;17.77;9.47;;;;;;;0.32;100.00;101441.81;5051451;28;20193;-75
2020/12/17 01:54:39;;;;;;;18.80;9.47;;;;;;;0.27;100.00;101445.94;5048434;28;20676;-75
2020/12/17 01:57:06;;;;;;;17.60;9.03;;;;;;;0.26;100.00;101440.75;5049194;28;20245;-75
2020/12/17 01:59:42;;;;;;;16.30;8.90;;;;;;;0.22;100.00;101438.94;5048567;28;20223;-74
2020/12/17 02:02:10;;;;;;;18.87;9.50;;;;;;;0.19;100.00;101437.13;5051408;28;20664;-75
2020/12/17 02:04:36;;;;;;;17.43;9.17;;;;;;;0.19;100.00;101437.13;5046270;28;20542;-74
2020/12/17 02:07:05;;;;;;;16.30;8.63;;;;;;;0.22;100.00;101441.50;5056166;28;20265;-75
2020/12/17 02:09:31;;;;;;;16.87;8.77;;;;;;;0.21;100.00;101432.91;5044437;28;20234;-73
2020/12/17 02:11:58;;;;;;;19.10;9.43;;;;;;;0.22;100.00;101433.78;5054278;28;20213;-75
2020/12/17 02:14:25;;;;;;;19.33;9.17;;;;;;;0.22;100.00;101433.78;5030958;28;20212;-75
2020/12/17 02:16:52;;;;;;;18.93;9.63;;;;;;;0.25;100.00;101428.75;5047935;28;20191;-75
2020/12/17 02:19:18;;;;;;;17.43;8.60;;;;;;;0.31;100.00;101434.06;5036570;28;20231;-73
2020/12/17 02:21:45;;;;;;;18.47;9.73;;;;;;;0.35;100.00;101429.06;5036325;28;20289;-75
2020/12/17 02:24:12;;;;;;;18.10;8.93;;;;;;;0.41;100.00;101430.94;5039670;28;20205;-75
2020/12/17 02:26:39;;;;;;;20.50;9.83;;;;;;;0.46;100.00;101429.38;5047952;28;20547;-75
2020/12/17 02:29:05;;;;;;;21.70;9.33;;;;;;;0.51;100.00;101430.38;5052168;28;20731;-75
2020/12/17 02:31:30;;;;;;;18.43;9.13;;;;;;;0.53;100.00;101425.28;5051922;28;20188;-75
2020/12/17 02:33:56;;;;;;;20.90;9.83;;;;;;;0.46;100.00;101421.66;5035236;28;20204;-75
2020/12/17 02:36:22;;;;;;;19.47;9.37;;;;;;;0.49;100.00;101424.34;5043272;28;20604;-72
2020/12/17 02:38:49;;;;;;;22.40;9.27;;;;;;;0.50;100.00;101420.91;5055174;28;20210;-75
2020/12/17 02:41:14;;;;;;;20.30;9.50;;;;;;;0.51;100.00;101425.25;5046042;28;20229;-75
2020/12/17 02:43:42;;;;;;;19.37;9.93;;;;;;;0.54;100.00;101421.88;5051499;28;20290;-75
2020/12/17 02:46:08;;;;;;;25.10;10.50;;;;;;;0.53;100.00;101420.16;5042360;28;20207;-75
2020/12/17 02:48:34;;;;;;;23.23;10.47;;;;;;;0.53;100.00;101415.03;5045594;28;20198;-75
2020/12/17 02:51:01;;;;;;;20.17;9.77;;;;;;;0.56;100.00;101413.41;5050477;28;20642;-73
2020/12/17 02:53:26;;;;;;;19.93;10.33;;;;;;;0.59;100.00;101407.47;5046604;28;20198;-74
2020/12/17 02:55:53;;;;;;;22.20;10.03;;;;;;;0.59;100.00;101404.91;5050323;28;20737;-74
2020/12/17 02:58:19;;;;;;;24.50;10.70;;;;;;;0.61;100.00;101404.94;5045543;28;20260;-73
2020/12/17 03:00:46;;;;;;;23.20;10.40;;;;;;;0.66;100.00;101408.50;5049346;28;20233;-73
2020/12/17 03:03:12;;;;;;;24.13;10.67;;;;;;;0.65;100.00;101409.31;5042154;28;20199;-75
2020/12/17 03:05:37;;;;;;;22.70;10.53;;;;;;;0.63;100.00;101408.41;5057773;28;20326;-75
2020/12/17 03:08:03;;;;;;;25.07;12.23;;;;;;;0.63;100.00;101413.56;5048993;28;20730;-75
2020/12/17 03:10:29;;;;;;;27.60;11.10;;;;;;;0.60;100.00;101409.22;5056866;28;20243;-74
2020/12/17 03:12:55;;;;;;;27.10;11.37;;;;;;;0.64;100.00;101408.47;5052564;28;20367;-75
2020/12/17 03:15:21;;;;;;;24.03;10.80;;;;;;;0.61;100.00;101408.38;5053592;28;20678;-75
2020/12/17 03:17:48;;;;;;;25.67;11.57;;;;;;;0.61;100.00;101417.78;5052550;28;20283;-75
2020/12/17 03:20:14;;;;;;;24.60;11.13;;;;;;;0.57;100.00;101415.13;5051189;28;20322;-75
2020/12/17 03:22:40;;;;;;;29.43;12.13;;;;;;;0.56;100.00;101409.94;5059499;28;20237;-75
2020/12/17 03:25:08;;;;;;;24.77;11.73;;;;;;;0.54;100.00;101416.72;5029438;28;20204;-74
2020/12/17 03:27:34;;;;;;;28.73;12.13;;;;;;;0.48;100.00;101411.44;5057010;28;20202;-75
2020/12/17 03:30:01;;;;;;;30.50;12.73;;;;;;;0.44;100.00;101418.19;5045692;28;20217;-74
2020/12/17 03:32:26;;;;;;;28.40;11.60;;;;;;;0.41;100.00;101412.13;5054553;28;20202;-74
2020/12/17 03:34:53;;;;;;;28.63;12.03;;;;;;;0.37;100.00;101403.47;5050625;28;20773;-75
2020/12/17 03:37:19;;;;;;;25.53;11.17;;;;;;;0.34;100.00;101400.81;5055133;28;20276;-72
2020/12/17 03:39:45;;;;;;;29.43;12.73;;;;;;;0.30;100.00;101402.41;5038830;28;20224;-75
2020/12/17 03:42:11;;;;;;;27.63;12.83;;;;;;;0.24;100.00;101396.22;5052075;28;20202;-75
2020/12/17 03:44:37;;;;;;;30.47;12.37;;;;;;;0.24;100.00;101393.66;5033887;28;20204;-75
2020/12/17 03:47:02;;;;;;;27.50;11.20;;;;;;;0.23;100.00;101390.25;5038172;28;20205;-75
2020/12/17 03:49:28;;;;;;;23.90;11.53;;;;;;;0.25;100.00;101383.44;5058147;28;20216;-75
2020/12/17 03:51:55;;;;;;;25.17;11.40;;;;;;;0.22;100.00;101388.50;5032477;28;20890;-75
2020/12/17 03:54:21;;;;;;;24.27;11.63;;;;;;;0.20;100.00;101391.84;5056273;28;20199;-75
2020/12/17 03:56:47;;;;;;;27.23;11.77;;;;;;;0.17;100.00;101388.34;5049169;28;20199;-75
2020/12/17 03:59:13;;;;;;;28.93;12.03;;;;;;;0.12;100.00;101386.47;5059358;28;20244;-75
2020/12/17 04:01:39;;;;;;;26.33;11.60;;;;;;;0.08;100.00;101390.66;5037010;28;20954;-75
2020/12/17 04:04:04;;;;;;;27.60;12.37;;;;;;;0.07;100.00;101395.72;5059707;28;20678;-75
2020/12/17 04:06:30;;;;;;;27.53;11.70;;;;;;;0.03;100.00;101402.47;5052430;28;20199;-74
2020/12/17 04:08:57;;;;;;;27.33;12.23;;;;;;;0.01;100.00;101393.00;5047267;28;20198;-74
2020/12/17 04:11:23;;;;;;;20.90;10.67;;;;;;;-0.04;100.00;101393.72;5043310;28;20691;-74
2020/12/17 04:13:49;;;;;;;29.73;12.13;;;;;;;-0.07;100.00;101393.66;5051425;28;20277;-74
2020/12/17 04:16:15;;;;;;;30.33;13.20;;;;;;;-0.09;100.00;101394.41;5057052;28;20196;-74
2020/12/17 04:18:40;;;;;;;25.57;12.13;;;;;;;-0.17;100.00;101393.34;5045382;28;20732;-74
2020/12/17 04:21:06;;;;;;;21.40;10.67;;;;;;;-0.14;100.00;101389.16;5061381;28;20573;-74
2020/12/17 04:23:32;;;;;;;27.13;11.70;;;;;;;-0.12;100.00;101387.53;5054288;28;20278;-74
2020/12/17 04:25:59;;;;;;;29.27;12.93;;;;;;;-0.11;100.00;101381.53;5051505;28;20197;-74
2020/12/17 04:28:25;;;;;;;26.00;12.03;;;;;;;-0.11;100.00;101383.25;5049536;28;20208;-74
2020/12/17 04:30:51;;;;;;;25.30;11.70;;;;;;;-0.10;100.00;101378.19;5056764;28;20254;-74
2020/12/17 04:33:17;;;;;;;23.13;12.13;;;;;;;-0.15;100.00;101379.72;5050755;28;20204;-74
2020/12/17 04:35:43;;;;;;;28.53;11.97;;;;;;;-0.17;100.00;101378.81;5048423;28;20225;-74
2020/12/17 04:38:08;;;;;;;29.80;11.70;;;;;;;-0.16;100.00;101377.13;5054204;28;20749;-74
2020/12/17 04:40:35;;;;;;;25.30;10.83;;;;;;;-0.16;100.00;101377.97;5049868;28;20223;-75
2020/12/17 04:43:02;;;;;;;30.57;12.67;;;;;;;-0.16;100.00;101377.97;5033502;28;20199;-74
2020/12/17 04:45:28;;;;;;;26.30;11.97;;;;;;;-0.19;100.00;101383.03;5049127;28;20207;-74
2020/12/17 04:47:54;;;;;;;29.80;12.77;;;;;;;-0.23;100.00;101387.19;5056005;28;20199;-74
2020/12/17 04:50:24;;;;;;;26.57;11.87;;;;;;;-0.28;100.00;101383.63;5047923;28;20246;-74
2020/12/17 04:52:52;;;;;;;29.10;11.97;;;;;;;-0.29;100.00;101386.13;5033344;28;20203;-74
2020/12/17 04:55:19;;;;;;;28.27;11.70;;;;;;;-0.32;100.00;101389.47;5047353;28;20664;-74
2020/12/17 04:57:46;;;;;;;28.60;12.77;;;;;;;-0.36;100.00;101385.06;5057317;28;20210;-74
2020/12/17 05:00:14;;;;;;;29.90;12.33;;;;;;;-0.38;100.00;101382.47;5047986;28;20219;-75
2020/12/17 05:02:46;;;;;;;26.93;10.83;;;;;;;-0.42;100.00;101379.78;5058297;28;20194;-74
2020/12/17 05:05:12;;;;;;;22.33;11.47;;;;;;;-0.42;100.00;101392.59;5048463;28;20217;-74
2020/12/17 05:07:38;;;;;;;25.00;10.63;;;;;;;-0.50;100.00;101396.59;5051139;28;20230;-74
2020/12/17 05:10:05;;;;;;;27.73;12.13;;;;;;;-0.52;100.00;101386.28;5047851;28;20237;-74
2020/12/17 05:12:31;;;;;;;30.30;12.13;;;;;;;-0.58;100.00;101389.53;5051351;28;20203;-74
2020/12/17 05:14:57;;;;;;;35.90;13.27;;;;;;;-0.66;100.00;101380.72;5049493;28;20206;-74
2020/12/17 05:17:24;;;;;;;39.17;15.43;;;;;;;-0.65;100.00;101386.72;5051931;28;20211;-74
2020/12/17 05:19:51;;;;;;;31.20;13.70;;;;;;;-0.65;100.00;101394.41;5055409;28;20231;-74
2020/12/17 05:22:18;;;;;;;30.23;13.33;;;;;;;-0.70;100.00;101391.72;5045673;28;20260;-74
2020/12/17 05:24:45;;;;;;;37.87;16.00;;;;;;;-0.69;100.00;101392.56;5052988;28;20187;-74
2020/12/17 05:27:11;;;;;;;36.63;16.37;;;;;;;-0.72;100.00;101389.91;5047002;28;20200;-74
2020/12/17 05:29:38;;;;;;;34.03;15.40;;;;;;;-0.82;100.00;101384.50;5047565;28;20219;-74
2020/12/17 05:32:04;;;;;;;32.30;15.00;;;;;;;-0.85;100.00;101384.38;5030805;28;20203;-74
2020/12/17 05:34:32;;;;;;;32.27;14.80;;;;;;;-0.89;100.00;101382.56;5050300;28;20679;-75
2020/12/17 05:36:59;;;;;;;25.47;13.00;;;;;;;-0.87;100.00;101386.03;5031641;28;20209;-75
2020/12/17 05:39:25;;;;;;;31.93;13.50;;;;;;;-0.87;100.00;101388.59;5038084;28;20219;-74
2020/12/17 05:41:52;;;;;;;32.07;13.93;;;;;;;-0.86;100.00;101389.44;5037589;28;20310;-74
2020/12/17 05:44:20;;;;;;;25.80;12.63;;;;;;;-0.88;100.00;101389.44;5047239;28;20225;-74
2020/12/17 05:46:47;;;;;;;24.80;12.43;;;;;;;-1.01;100.00;101383.00;5052915;28;20191;-74
2020/12/17 05:49:18;;;;;;;24.90;11.60;;;;;;;-1.01;100.00;101385.56;5050778;28;20215;-74
2020/12/17 05:51:46;;;;;;;25.17;11.70;;;;;;;-1.06;100.00;101383.69;5054068;28;20190;-74
2020/12/17 05:54:21;;;;;;;22.37;10.73;;;;;;;-1.07;100.00;101377.72;5052521;28;20234;-75
2020/12/17 05:56:48;;;;;;;24.43;11.27;;;;;;;-1.06;100.00;101382.00;5035445;28;20374;-74
2020/12/17 05:59:22;;;;;;;27.17;11.07;;;;;;;-1.08;100.00;101386.19;5048450;28;20553;-74
2020/12/17 06:01:48;;;;;;;20.57;10.80;;;;;;;-1.07;100.00;101387.94;5046730;28;20246;-74
2020/12/17 06:04:15;;;;;;;23.03;11.73;;;;;;;-1.06;100.00;101388.81;5051755;28;20199;-73
2020/12/17 06:06:46;;;;;;;27.43;11.73;;;;;;;-1.03;100.00;101394.91;5048734;28;20327;-74
2020/12/17 06:09:20;;;;;;;19.97;9.73;;;;;;;-1.06;100.00;101387.09;5053898;28;20288;-74
2020/12/17 06:11:47;;;;;;;25.87;11.50;;;;;;;-1.07;100.00;101384.50;5028110;28;20286;-74
2020/12/17 06:14:14;;;;;;;20.93;10.87;;;;;;;-1.08;100.00;101391.31;5049390;28;20195;-74
2020/12/17 06:16:43;;;;;;;22.37;10.67;;;;;;;-1.04;100.00;101390.63;5046604;28;20557;-75
2020/12/17 06:19:11;;;;;;;23.20;11.40;;;;;;;-1.09;100.00;101392.16;5055363;28;20227;-74
2020/12/17 06:21:40;;;;;;;21.73;9.93;;;;;;;-1.09;100.00;101397.25;5047521;28;20219;-74
2020/12/17 06:24:07;;;;;;;22.50;10.70;;;;;;;-1.13;100.00;101394.53;5048759;28;20187;-74
2020/12/17 06:26:39;;;;;;;21.00;9.63;;;;;;;-1.15;100.00;101392.78;5051318;28;20201;-74
2020/12/17 06:29:17;;;;;;;21.43;10.43;;;;;;;-1.16;100.00;101398.75;5056759;28;20222;-74
2020/12/17 06:31:56;;;;;;;22.47;10.57;;;;;;;-1.15;100.00;101407.28;5030249;28;20304;-74
2020/12/17 06:34:22;;;;;;;33.03;16.07;;;;;;;-1.18;100.00;101413.19;5051426;28;20245;-74
2020/12/17 06:36:57;;;;;;;27.97;12.03;;;;;;;-1.09;100.00;101419.41;5055098;28;20206;-74
2020/12/17 06:39:24;;;;;;;26.33;11.40;;;;;;;-1.12;100.00;101422.75;5056589;28;20222;-74
2020/12/17 06:41:50;;;;;;;23.10;10.83;;;;;;;-1.20;100.00;101431.84;5051500;28;20219;-74
2020/12/17 06:44:28;;;;;;;22.00;10.30;;;;;;;-1.18;100.00;101425.09;5056207;28;20206;-74
2020/12/17 06:46:55;;;;;;;20.87;9.57;;;;;;;-1.23;100.00;101414.72;5055370;28;20279;-74
2020/12/17 06:49:24;;;;;;;22.70;10.97;;;;;;;-1.29;100.00;101417.03;5052469;28;20227;-74
2020/12/17 06:52:01;;;;;;;27.47;11.43;;;;;;;-1.19;100.00;101418.25;5025856;28;20218;-74
2020/12/17 06:54:39;;;;;;;26.37;12.37;;;;;;;-1.31;100.00;101411.00;5049923;28;20199;-75
2020/12/17 06:57:07;;;;;;;24.87;9.97;;;;;;;-1.29;100.00;101419.59;5048159;28;20207;-74
2020/12/17 06:59:34;;;;;;;20.77;9.50;;;;;;;-1.29;100.00;101428.97;5034128;28;20222;-74
2020/12/17 07:02:00;;;;;;;24.00;10.87;;;;;;;-1.30;100.00;101422.09;5060637;28;20203;-74
2020/12/17 07:04:39;;;;;;;19.17;9.90;;;;;;;-1.26;100.00;101427.38;5054929;28;20211;-74
2020/12/17 07:07:17;;;;;;;27.03;12.10;;;;;;;-1.23;100.00;101437.75;5033691;28;20202;-74
2020/12/17 07:09:46;;;;;;;20.80;10.40;;;;;;;-1.26;100.00;101437.63;5052947;28;20227;-74
2020/12/17 07:12:12;;;;;;;28.40;12.57;;;;;;;-1.29;100.00;101447.75;5052270;28;20530;-74
2020/12/17 07:14:41;;;;;;;25.40;12.00;;;;;;;-1.25;100.00;101448.72;5052266;28;20192;-74
2020/12/17 07:17:08;;;;;;;22.80;10.40;;;;;;;-1.30;100.00;101438.34;5056127;28;20668;-74
2020/12/17 07:19:42;;;;;;;20.93;9.93;;;;;;;-1.30;100.00;101442.56;5051762;28;20258;-75
2020/12/17 07:22:11;;;;;;;21.53;10.07;;;;;;;-1.27;100.00;101448.66;5039649;28;20225;-74
2020/12/17 07:24:39;;;;;;;20.67;9.90;;;;;;;-1.28;100.00;101439.25;5032804;28;20211;-74
2020/12/17 07:27:08;;;;;;;18.83;9.47;;;;;;;-1.22;100.00;101429.22;5047941;28;20192;-74
2020/12/17 07:29:41;;;;;;;30.87;10.60;;;;;;;-1.20;100.00;101432.69;5061118;28;20711;-74
2020/12/17 07:32:27;;;;;;;19.93;9.53;;;;;;;-1.06;100.00;101434.88;5055117;28;20198;-74
2020/12/17 07:34:56;;;;;;;17.70;9.17;;;;;;;-1.02;100.00;101429.03;5056406;28;20259;-74
2020/12/17 07:37:36;;;;;;;21.40;8.93;;;;;;;-0.96;100.00;101429.25;5051826;28;20210;-74
2020/12/17 07:40:05;;;;;;;17.70;8.40;;;;;;;-0.87;100.00;101426.13;5055637;28;20233;-74
2020/12/17 07:42:31;;;;;;;22.37;9.47;;;;;;;-0.78;100.00;101431.56;5052414;28;20207;-74
2020/12/17 07:44:57;;;;;;;24.00;10.17;;;;;;;-0.77;100.00;101433.31;5039752;28;20195;-74
2020/12/17 07:47:24;;;;;;;21.07;9.13;;;;;;;-0.80;100.00;101443.44;5052633;28;20253;-74
2020/12/17 07:49:50;;;;;;;29.10;12.03;;;;;;;-0.78;100.00;101440.09;5053854;28;20606;-74
2020/12/17 07:52:28;;;;;;;24.13;10.60;;;;;;;-0.71;100.00;101423.25;5052334;28;20275;-74
2020/12/17 07:54:54;;;;;;;19.30;9.23;;;;;;;-0.62;100.00;101435.50;5046022;28;20224;-74
2020/12/17 07:57:20;;;;;;;18.83;9.57;;;;;;;-0.60;100.00;101449.22;5036621;28;20211;-75
2020/12/17 07:59:47;;;;;;;21.77;9.47;;;;;;;-0.60;100.00;101449.22;5036207;28;20630;-74
2020/12/17 08:02:14;;;;;;;28.43;11.77;;;;;;;-0.54;100.00;101464.81;5053905;28;20599;-74
2020/12/17 08:04:45;;;;;;;20.47;9.53;;;;;;;-0.49;100.00;101458.13;5030028;28;20297;-74
2020/12/17 08:07:11;;;;;;;22.47;9.53;;;;;;;-0.41;100.00;101460.94;5051451;28;20211;-74
2020/12/17 08:09:36;;;;;;;22.53;10.50;;;;;;;-0.32;100.00;101452.66;5050747;28;20570;-75
2020/12/17 08:12:03;;;;;;;26.27;10.93;;;;;;;-0.24;100.00;101451.22;5057369;28;20626;-74
2020/12/17 08:14:29;;;;;;;21.30;10.07;;;;;;;-0.15;100.00;101453.22;5028390;28;20213;-74
2020/12/17 08:17:05;;;;;;;22.13;9.67;;;;;;;-0.09;100.00;101455.94;5045002;28;20795;-74
2020/12/17 08:19:31;;;;;;;23.10;10.00;;;;;;;0.01;100.00;101459.69;5048065;28;20227;-74
2020/12/17 08:21:58;;;;;;;23.73;9.50;;;;;;;0.08;100.00;101454.75;5051894;28;20219;-74
2020/12/17 08:24:25;;;;;;;28.43;9.90;;;;;;;0.12;100.00;101451.50;5054206;28;20203;-74
2020/12/17 08:26:53;;;;;;;27.07;10.23;;;;;;;0.20;100.00;101455.97;5047702;28;20203;-74
2020/12/17 08:29:19;;;;;;;26.60;9.43;;;;;;;0.26;100.00;101453.56;5051212;28;20241;-74
2020/12/17 08:31:45;;;;;;;28.70;10.50;;;;;;;0.35;100.00;101454.72;5054537;28;20619;-74
2020/12/17 08:34:13;;;;;;;24.13;11.10;;;;;;;0.40;100.00;101457.41;5056693;28;20218;-74
2020/12/17 08:36:39;;;;;;;21.73;10.50;;;;;;;0.47;100.00;101456.75;5049248;28;20199;-74
2020/12/17 08:39:09;;;;;;;25.53;11.10;;;;;;;0.53;100.00;101461.22;5053098;28;20215;-74
2020/12/17 08:41:39;;;;;;;25.27;9.97;;;;;;;0.59;100.00;101461.38;5051021;28;20238;-74
2020/12/17 08:44:07;;;;;;;25.67;10.63;;;;;;;0.70;100.00;101459.09;5030318;28;20598;-75
2020/12/17 08:46:35;;;;;;;20.50;10.27;;;;;;;0.78;100.00;101462.75;5050387;28;20206;-74
2020/12/17 08:49:04;;;;;;;24.57;10.93;;;;;;;0.88;100.00;101456.16;5034940;28;20562;-75
2020/12/17 08:51:32;;;;;;;25.43;11.10;;;;;;;1.00;100.00;101456.47;5047352;28;20207;-75
2020/12/17 08:53:58;;;;;;;29.83;11.13;;;;;;;1.09;100.00;101458.41;5037727;28;20193;-75
2020/12/17 08:56:24;;;;;;;28.90;10.27;;;;;;;1.18;100.00;101461.25;5032114;28;20214;-75
2020/12/17 08:58:52;;;;;;;27.40;11.17;;;;;;;1.28;100.00;101462.34;5051840;28;20210;-75
2020/12/17 09:01:22;;;;;;;26.23;10.70;;;;;;;1.37;100.00;101454.84;5035972;28;20207;-75
2020/12/17 09:03:48;;;;;;;41.07;14.83;;;;;;;1.48;99.68;101452.56;5049244;28;20193;-75
2020/12/17 09:06:15;;;;;;;32.67;12.13;;;;;;;1.59;99.00;101460.53;5052848;28;20205;-75
2020/12/17 09:08:42;;;;;;;28.13;10.97;;;;;;;1.65;98.61;101458.97;5054330;28;20200;-75
2020/12/17 09:11:32;;;;;;;35.87;11.17;;;;;;;1.77;97.77;101457.53;5053585;28;20290;-75
2020/12/17 09:13:59;;;;;;;37.57;12.23;;;;;;;1.92;97.58;101457.00;5052833;28;20198;-75
2020/12/17 09:16:28;;;;;;;29.40;11.53;;;;;;;1.98;97.63;101458.00;5049327;28;20595;-75
2020/12/17 09:18:55;;;;;;;35.80;12.10;;;;;;;2.06;96.73;101468.47;5045579;28;20230;-75
2020/12/17 09:21:21;;;;;;;39.10;12.00;;;;;;;2.13;95.94;101461.75;5037061;28;20211;-75
2020/12/17 09:23:57;;;;;;;28.80;11.43;;;;;;;2.18;95.69;101450.75;5051644;28;20212;-75
2020/12/17 09:26:24;;;;;;;35.57;12.03;;;;;;;2.26;95.08;101453.47;5040409;28;20205;-76
2020/12/17 09:28:52;;;;;;;35.13;12.10;;;;;;;2.31;95.37;101448.44;5054187;28;20206;-75
2020/12/17 09:31:25;;;;;;;36.37;13.97;;;;;;;2.37;94.69;101449.41;5053483;28;20264;-75
2020/12/17 09:34:04;;;;;;;41.47;12.97;;;;;;;2.43;94.35;101444.38;5055650;28;20259;-75
2020/12/17 09:36:33;;;;;;;37.43;13.80;;;;;;;2.47;94.35;101442.75;5051727;28;20252;-73
2020/12/17 09:39:11;;;;;;;39.10;12.53;;;;;;;2.54;94.03;101442.03;5030625;28;20206;-74
2020/12/17 09:41:51;;;;;;;42.97;14.37;;;;;;;2.60;93.42;101447.31;5029087;28;20305;-73
2020/12/17 09:44:43;;;;;;;37.87;14.13;;;;;;;2.66;93.22;101438.84;5052193;28;20195;-74
2020/12/17 09:47:30;;;;;;;36.37;13.57;;;;;;;2.71;93.33;101439.78;5047694;28;20208;-73
2020/12/17 09:50:10;;;;;;;43.90;15.07;;;;;;;2.77;92.73;101437.31;5050460;28;20246;-73
2020/12/17 09:52:40;;;;;;;38.80;14.33;;;;;;;2.82;92.62;101433.13;5035503;28;20243;-73
2020/12/17 09:55:18;;;;;;;42.23;15.87;;;;;;;2.86;92.57;101434.06;5048963;28;20271;-75
2020/12/17 09:57:47;;;;;;;40.13;15.23;;;;;;;2.92;92.04;101433.28;5050122;28;20199;-73
2020/12/17 10:00:15;;;;;;;37.87;14.33;;;;;;;2.96;91.53;101428.22;5033464;28;20722;-73
2020/12/17 10:02:42;;;;;;;39.37;14.77;;;;;;;3.02;91.77;101428.31;5048807;28;20205;-73
2020/12/17 10:05:11;;;;;;;34.97;14.17;;;;;;;3.08;91.19;101427.59;5045982;28;20199;-72
2020/12/17 10:07:37;;;;;;;31.27;14.33;;;;;;;3.14;90.94;101430.25;5051602;28;20562;-72
2020/12/17 10:10:03;;;;;;;34.03;14.50;;;;;;;3.17;90.95;101432.91;5050119;28;20305;-73
2020/12/17 10:12:30;;;;;;;35.50;14.37;;;;;;;3.21;91.19;101433.81;5041867;28;20257;-72
2020/12/17 10:14:56;;;;;;;36.37;14.73;;;;;;;3.26;91.07;101426.16;5048502;28;20202;-73
2020/12/17 10:17:22;;;;;;;30.93;13.67;;;;;;;3.30;90.73;101430.53;5051530;28;20586;-74
2020/12/17 10:19:49;;;;;;;38.10;14.73;;;;;;;3.34;90.60;101434.88;5056926;28;20822;-73
2020/12/17 10:22:15;;;;;;;34.20;14.43;;;;;;;3.41;90.36;101432.44;5054453;28;20227;-73
2020/12/17 10:24:41;;;;;;;31.13;13.30;;;;;;;3.45;89.52;101433.34;5051541;28;20789;-72
2020/12/17 10:27:06;;;;;;;33.50;14.40;;;;;;;3.49;89.92;101431.69;5048352;28;20662;-73
2020/12/17 10:29:33;;;;;;;35.23;14.07;;;;;;;3.54;90.05;101428.34;5053367;28;20225;-73
2020/12/17 10:31:59;;;;;;;28.63;13.77;;;;;;;3.59;89.67;101431.84;5051413;28;20201;-72
2020/12/17 10:34:25;;;;;;;30.70;14.13;;;;;;;3.65;88.52;101436.22;5051416;28;20186;-73
2020/12/17 10:36:51;;;;;;;30.30;13.30;;;;;;;3.71;88.56;101432.88;5055858;28;20210;-72
2020/12/17 10:39:17;;;;;;;29.27;13.23;;;;;;;3.77;88.76;101430.41;5051346;28;20831;-72
2020/12/17 10:41:43;;;;;;;26.20;13.77;;;;;;;3.82;88.55;101422.72;5048396;28;20215;-72
2020/12/17 10:44:09;;;;;;;27.90;14.10;;;;;;;3.86;88.48;101430.53;5046704;28;20211;-73
2020/12/17 10:46:36;;;;;;;27.87;13.00;;;;;;;3.90;88.63;101429.72;5047065;28;20821;-72
2020/12/17 10:49:03;;;;;;;26.30;12.27;;;;;;;3.96;88.58;101439.28;5048903;28;20269;-72
2020/12/17 10:51:29;;;;;;;32.57;13.53;;;;;;;3.99;88.04;101447.03;5052454;28;20680;-72
2020/12/17 10:53:55;;;;;;;27.93;13.07;;;;;;;4.04;87.78;101449.69;5054913;28;20202;-72
2020/12/17 10:56:21;;;;;;;26.53;12.93;;;;;;;4.08;87.99;101451.47;5033590;28;20895;-72
2020/12/17 10:58:49;;;;;;;32.20;13.80;;;;;;;4.11;87.83;101454.94;5048512;28;20192;-73
2020/12/17 11:01:20;;;;;;;29.43;13.03;;;;;;;4.16;88.35;101455.88;5050173;28;20710;-72
2020/12/17 11:03:47;;;;;;;23.47;11.03;;;;;;;4.22;88.48;101454.25;5035762;28;20207;-73
2020/12/17 11:06:17;;;;;;;26.07;12.47;;;;;;;4.27;88.14;101443.13;5047644;28;20547;-72
2020/12/17 11:08:44;;;;;;;25.73;13.97;;;;;;;4.33;87.87;101430.31;5054528;28;20191;-72
2020/12/17 11:11:10;;;;;;;26.90;12.97;;;;;;;4.39;87.27;101432.09;5047117;28;20595;-73